createdAt,value
2019-05-22T00:00:43.011Z,11.60
2019-05-22T00:03:13.988Z,12.03
2019-05-22T00:05:44.164Z,12.13
2019-05-22T00:08:13.025Z,12.03
2019-05-22T00:10:43.689Z,11.97
2019-05-22T00:13:18.808Z,13.43
2019-05-22T00:15:49.890Z,12.20
2019-05-22T00:18:19.680Z,11.37
2019-05-22T00:20:49.354Z,10.80
2019-05-22T00:23:18.855Z,9.87
2019-05-22T00:25:48.622Z,9.70
2019-05-22T00:28:18.191Z,9.03
2019-05-22T00:30:49.232Z,9.30
2019-05-22T00:33:18.356Z,10.23
2019-05-22T00:35:47.759Z,8.97
2019-05-22T00:38:18.224Z,9.23
2019-05-22T00:40:51.714Z,8.10
2019-05-22T00:43:22.168Z,7.60
2019-05-22T00:45:52.532Z,7.27
2019-05-22T00:48:23.983Z,7.53
2019-05-22T00:50:57.422Z,7.90
2019-05-22T00:53:39.472Z,8.30
2019-05-22T00:56:14.001Z,8.10
2019-05-22T00:58:44.739Z,7.67
2019-05-22T01:01:33.308Z,8.13
2019-05-22T01:04:04.547Z,7.23
2019-05-22T01:06:35.672Z,8.03
2019-05-22T01:09:09.128Z,8.07
2019-05-22T01:11:39.805Z,8.67
2019-05-22T01:14:09.671Z,8.07
2019-05-22T01:16:40.011Z,9.10
2019-05-22T01:19:10.983Z,8.83
2019-05-22T01:21:40.428Z,10.20
2019-05-22T01:24:11.031Z,8.90
2019-05-22T01:26:41.877Z,8.57
2019-05-22T01:29:11.657Z,8.73
2019-05-22T01:31:42.254Z,8.50
2019-05-22T01:34:12.928Z,8.77
2019-05-22T01:36:49.986Z,8.10
2019-05-22T01:39:39.817Z,8.90
2019-05-22T01:42:12.591Z,8.53
2019-05-22T01:44:41.894Z,8.27
2019-05-22T01:47:13.673Z,8.60
2019-05-22T01:49:47.128Z,8.73
2019-05-22T01:52:17.583Z,8.23
2019-05-22T01:54:46.988Z,8.53
2019-05-22T01:57:16.172Z,7.67
2019-05-22T01:59:45.325Z,7.90
2019-05-22T02:02:14.600Z,7.97
2019-05-22T02:04:53.204Z,8.53
2019-05-22T02:07:22.257Z,8.27
2019-05-22T02:09:52.422Z,8.00
2019-05-22T02:12:40.744Z,8.07
2019-05-22T02:15:11.958Z,8.87
2019-05-22T02:17:41.923Z,7.77
2019-05-22T02:20:11.444Z,8.43
2019-05-22T02:22:40.994Z,8.80
2019-05-22T02:25:12.130Z,8.97
2019-05-22T02:27:41.930Z,10.10
2019-05-22T02:30:10.997Z,12.10
2019-05-22T02:32:41.203Z,13.43
2019-05-22T02:35:11.386Z,12.80
2019-05-22T02:37:41.864Z,14.53
2019-05-22T02:40:32.988Z,14.87
2019-05-22T02:43:02.361Z,14.50
2019-05-22T02:45:31.731Z,13.87
2019-05-22T02:48:02.585Z,9.17
2019-05-22T02:50:34.543Z,8.87
2019-05-22T02:53:07.844Z,9.50
2019-05-22T02:55:38.413Z,9.80
2019-05-22T02:58:07.877Z,9.27
2019-05-22T03:00:48.671Z,8.83
2019-05-22T03:03:17.711Z,8.97
2019-05-22T03:05:46.976Z,9.73
2019-05-22T03:08:17.038Z,10.63
2019-05-22T03:10:46.727Z,10.93
2019-05-22T03:13:16.407Z,10.17
2019-05-22T03:15:45.617Z,10.40
2019-05-22T03:18:15.195Z,10.13
2019-05-22T03:20:44.659Z,9.17
2019-05-22T03:23:36.725Z,9.77
2019-05-22T03:26:08.243Z,9.90
2019-05-22T03:28:37.608Z,9.30
2019-05-22T03:31:07.540Z,10.27
2019-05-22T03:33:36.896Z,10.70
2019-05-22T03:36:15.251Z,10.30
2019-05-22T03:38:45.416Z,8.43
2019-05-22T03:41:15.579Z,8.77
2019-05-22T03:43:46.534Z,8.57
2019-05-22T03:46:37.354Z,7.00
2019-05-22T03:49:06.345Z,7.57
2019-05-22T03:51:35.227Z,7.70
2019-05-22T03:54:05.606Z,7.63
2019-05-22T03:56:37.698Z,7.80
2019-05-22T03:59:07.474Z,7.60
2019-05-22T04:01:36.726Z,7.40
2019-05-22T04:04:07.670Z,7.40
2019-05-22T04:06:39.395Z,7.53
2019-05-22T04:09:20.625Z,7.43
2019-05-22T04:11:50.070Z,7.90
2019-05-22T04:14:20.698Z,8.77
2019-05-22T04:16:52.148Z,8.20
2019-05-22T04:19:21.565Z,9.07
2019-05-22T04:21:50.633Z,9.53
2019-05-22T04:24:19.880Z,10.37
2019-05-22T04:26:49.152Z,9.60
2019-05-22T04:29:18.709Z,8.93
2019-05-22T04:31:52.309Z,7.87
2019-05-22T04:34:21.904Z,8.00
2019-05-22T04:36:51.038Z,8.10
2019-05-22T04:39:22.374Z,7.73
2019-05-22T04:41:51.543Z,7.07
2019-05-22T04:44:20.391Z,6.93
2019-05-22T04:46:49.902Z,8.23
2019-05-22T04:49:19.767Z,8.03
2019-05-22T04:51:49.135Z,7.90
2019-05-22T04:54:18.045Z,8.43
2019-05-22T04:56:47.534Z,7.67
2019-05-22T04:59:16.541Z,10.90
2019-05-22T05:01:46.364Z,11.60
2019-05-22T05:04:16.243Z,11.57
2019-05-22T05:06:45.617Z,8.87
2019-05-22T05:09:15.100Z,9.53
2019-05-22T05:11:44.649Z,10.30
2019-05-22T05:14:14.011Z,11.20
2019-05-22T05:16:43.857Z,10.97
2019-05-22T05:19:13.121Z,10.40
2019-05-22T05:21:42.077Z,11.73
2019-05-22T05:24:11.107Z,11.27
2019-05-22T05:26:40.865Z,11.17
2019-05-22T05:29:27.523Z,15.97
2019-05-22T05:31:58.170Z,13.70
2019-05-22T05:34:30.467Z,12.67
2019-05-22T05:37:02.179Z,11.50
2019-05-22T05:39:40.343Z,10.43
2019-05-22T05:42:09.294Z,9.70
2019-05-22T05:44:38.464Z,11.53
2019-05-22T05:47:08.224Z,11.20
2019-05-22T05:49:37.840Z,11.13
2019-05-22T05:52:08.410Z,12.80
2019-05-22T05:54:38.034Z,11.70
2019-05-22T05:57:36.574Z,11.97
2019-05-22T06:00:09.205Z,11.13
2019-05-22T06:02:38.271Z,13.07
2019-05-22T06:05:08.511Z,14.77
2019-05-22T06:07:38.289Z,13.60
2019-05-22T06:10:22.461Z,14.07
2019-05-22T06:12:51.313Z,14.17
2019-05-22T06:15:20.779Z,13.77
2019-05-22T06:18:27.505Z,14.43
2019-05-22T06:21:03.693Z,13.60
2019-05-22T06:23:38.899Z,12.03
2019-05-22T06:26:10.088Z,13.23
2019-05-22T06:28:40.506Z,12.10
2019-05-22T06:31:23.165Z,11.67
2019-05-22T06:33:52.763Z,12.87
2019-05-22T06:36:22.626Z,12.57
2019-05-22T06:38:55.436Z,13.97
2019-05-22T06:41:27.442Z,12.00
2019-05-22T06:44:26.865Z,12.43
2019-05-22T06:46:55.749Z,14.07
2019-05-22T06:49:38.577Z,20.53
2019-05-22T06:52:08.566Z,20.33
2019-05-22T06:54:38.721Z,15.60
2019-05-22T06:57:13.990Z,12.63
2019-05-22T06:59:43.712Z,13.40
2019-05-22T07:02:14.088Z,12.97
2019-05-22T07:04:43.882Z,13.37
2019-05-22T07:07:14.344Z,11.23
2019-05-22T07:09:45.112Z,11.33
2019-05-22T07:12:15.757Z,11.87
2019-05-22T07:15:07.163Z,12.97
2019-05-22T07:17:37.791Z,12.60
2019-05-22T07:20:07.657Z,10.73
2019-05-22T07:22:37.212Z,10.73
2019-05-22T07:25:08.730Z,10.53
2019-05-22T07:27:38.610Z,10.17
2019-05-22T07:30:09.257Z,11.67
2019-05-22T07:32:44.644Z,11.90
2019-05-22T07:35:13.702Z,10.93
2019-05-22T07:37:45.325Z,11.03
2019-05-22T07:40:14.867Z,11.37
2019-05-22T07:42:44.115Z,10.67
2019-05-22T07:45:13.575Z,10.83
2019-05-22T07:47:42.708Z,11.93
2019-05-22T07:50:12.956Z,12.17
2019-05-22T07:52:42.917Z,13.00
2019-05-22T07:55:12.428Z,14.10
2019-05-22T07:57:42.549Z,18.03
2019-05-22T08:00:12.106Z,18.07
2019-05-22T08:02:46.869Z,18.57
2019-05-22T08:05:17.747Z,17.67
2019-05-22T08:07:46.975Z,18.23
2019-05-22T08:10:17.792Z,13.50
2019-05-22T08:12:47.456Z,11.63
2019-05-22T08:15:18.088Z,8.37
2019-05-22T08:17:47.278Z,6.90
2019-05-22T08:20:16.446Z,6.78
2019-05-22T08:22:47.719Z,5.17
2019-05-22T08:25:17.567Z,5.50
2019-05-22T08:27:47.599Z,4.67
2019-05-22T08:30:17.065Z,5.50
2019-05-22T08:32:46.096Z,5.97
2019-05-22T08:35:15.240Z,4.97
2019-05-22T08:37:45.327Z,5.80
2019-05-22T08:40:16.394Z,4.90
2019-05-22T08:42:46.246Z,5.40
2019-05-22T08:45:18.111Z,4.33
2019-05-22T08:47:47.044Z,5.27
2019-05-22T08:50:19.260Z,5.60
2019-05-22T08:52:49.869Z,4.60
2019-05-22T08:55:19.252Z,4.25
2019-05-22T08:57:48.575Z,3.50
2019-05-22T09:00:21.105Z,3.40
2019-05-22T09:02:51.153Z,4.30
2019-05-22T09:05:21.503Z,4.00
2019-05-22T09:07:50.710Z,3.85
2019-05-22T09:10:20.685Z,4.03
2019-05-22T09:12:49.541Z,3.37
2019-05-22T09:15:18.449Z,2.87
2019-05-22T09:17:47.585Z,3.02
2019-05-22T09:20:17.260Z,3.47
2019-05-22T09:22:47.200Z,2.70
2019-05-22T09:25:16.722Z,2.52
2019-05-22T09:27:45.780Z,2.45
2019-05-22T09:30:15.426Z,2.55
2019-05-22T09:32:47.432Z,2.80
2019-05-22T09:35:15.784Z,2.15
2019-05-22T09:37:44.688Z,2.58
2019-05-22T09:40:13.753Z,2.90
2019-05-22T09:42:42.928Z,2.75
2019-05-22T09:45:12.205Z,2.80
2019-05-22T09:47:42.161Z,2.47
2019-05-22T09:50:12.437Z,2.40
2019-05-22T09:52:56.820Z,2.27
2019-05-22T09:55:14.999Z,2.50
2019-05-22T09:57:43.980Z,2.58
2019-05-22T10:00:14.762Z,1.80
2019-05-22T10:02:43.816Z,1.90
2019-05-22T10:05:14.621Z,1.60
2019-05-22T10:07:57.664Z,1.57
2019-05-22T10:10:15.236Z,1.92
2019-05-22T10:12:44.326Z,1.72
2019-05-22T10:15:13.963Z,1.70
2019-05-22T10:17:45.759Z,1.47
2019-05-22T10:20:15.216Z,1.55
2019-05-22T10:22:44.313Z,1.90
2019-05-22T10:25:16.607Z,1.98
2019-05-22T10:27:46.598Z,1.87
2019-05-22T10:30:18.575Z,1.67
2019-05-22T10:32:47.629Z,1.77
2019-05-22T10:35:17.296Z,1.40
2019-05-22T10:37:46.346Z,1.37
2019-05-22T10:40:15.914Z,1.75
2019-05-22T10:42:45.445Z,1.77
2019-05-22T10:45:14.807Z,1.85
2019-05-22T10:47:44.144Z,1.53
2019-05-22T10:50:14.112Z,1.83
2019-05-22T10:52:43.020Z,1.83
2019-05-22T10:55:13.210Z,1.80
2019-05-22T10:57:43.993Z,2.30
2019-05-22T11:00:16.144Z,1.87
2019-05-22T11:02:45.107Z,2.63
2019-05-22T11:05:14.050Z,2.27
2019-05-22T11:07:43.662Z,2.30
2019-05-22T11:10:13.930Z,2.50
2019-05-22T11:12:42.793Z,2.53
2019-05-22T11:15:12.201Z,1.80
2019-05-22T11:17:41.464Z,2.40
2019-05-22T11:20:12.444Z,2.57
2019-05-22T11:22:41.731Z,2.50
2019-05-22T11:25:13.259Z,2.40
2019-05-22T11:27:42.127Z,3.20
2019-05-22T11:30:12.718Z,3.30
2019-05-22T11:32:42.192Z,2.67
2019-05-22T11:35:12.561Z,2.77
2019-05-22T11:37:41.986Z,3.07
2019-05-22T11:40:11.859Z,2.57
2019-05-22T11:42:41.620Z,3.07
2019-05-22T11:45:13.371Z,2.40
2019-05-22T11:47:43.152Z,3.03
2019-05-22T11:50:13.483Z,2.57
2019-05-22T11:52:42.834Z,2.53
2019-05-22T11:55:13.585Z,2.30
2019-05-22T11:57:43.980Z,1.90
2019-05-22T12:00:13.882Z,2.17
2019-05-22T12:02:45.331Z,2.03
2019-05-22T12:05:15.482Z,2.50
2019-05-22T12:07:46.410Z,3.07
2019-05-22T12:10:16.188Z,2.70
2019-05-22T12:12:45.551Z,3.10
2019-05-22T12:15:15.261Z,3.77
2019-05-22T12:17:45.141Z,2.77
2019-05-22T12:20:14.817Z,2.23
2019-05-22T12:22:43.989Z,4.03
2019-05-22T12:25:13.777Z,2.90
2019-05-22T12:27:42.752Z,2.93
2019-05-22T12:30:14.161Z,2.20
2019-05-22T12:32:43.720Z,2.20
2019-05-22T12:35:14.582Z,2.77
2019-05-22T12:37:44.029Z,2.50
2019-05-22T12:40:15.829Z,2.60
2019-05-22T12:42:45.307Z,3.00
2019-05-22T12:45:15.934Z,2.83
2019-05-22T12:47:45.643Z,2.70
2019-05-22T12:50:17.286Z,3.87
2019-05-22T12:52:50.902Z,2.70
2019-05-22T12:55:21.064Z,2.33
2019-05-22T12:57:50.932Z,2.37
2019-05-22T13:00:24.306Z,2.37
2019-05-22T13:02:54.363Z,2.17
2019-05-22T13:05:24.029Z,2.37
2019-05-22T13:07:54.549Z,2.63
2019-05-22T13:10:26.171Z,3.23
2019-05-22T13:12:55.534Z,3.00
2019-05-22T13:15:25.382Z,2.27
2019-05-22T13:17:55.842Z,2.40
2019-05-22T13:20:41.797Z,3.80
2019-05-22T13:22:58.857Z,2.70
2019-05-22T13:25:34.146Z,2.80
2019-05-22T13:28:04.330Z,2.77
2019-05-22T13:30:35.716Z,3.93
2019-05-22T13:33:06.090Z,3.77
2019-05-22T13:35:35.157Z,4.40
2019-05-22T13:38:04.833Z,4.87
2019-05-22T13:40:34.789Z,5.20
2019-05-22T13:43:04.591Z,4.27
2019-05-22T13:45:35.789Z,3.70
2019-05-22T13:48:04.778Z,3.13
2019-05-22T13:50:33.781Z,5.30
2019-05-22T13:53:04.855Z,3.20
2019-05-22T13:55:34.014Z,2.97
2019-05-22T13:58:05.930Z,2.70
2019-05-22T14:00:36.866Z,3.00
2019-05-22T14:03:06.324Z,3.03
2019-05-22T14:05:36.647Z,2.87
2019-05-22T14:08:06.546Z,2.60
2019-05-22T14:10:35.359Z,3.33
2019-05-22T14:13:04.985Z,3.40
2019-05-22T14:15:48.753Z,4.07
2019-05-22T14:18:04.446Z,3.80
2019-05-22T14:20:33.605Z,3.43
2019-05-22T14:23:03.032Z,3.43
2019-05-22T14:25:32.242Z,3.53
2019-05-22T14:28:02.173Z,3.17
2019-05-22T14:30:31.392Z,4.00
2019-05-22T14:33:04.436Z,3.90
2019-05-22T14:35:46.983Z,3.50
2019-05-22T14:38:05.518Z,3.30
2019-05-22T14:40:34.985Z,3.60
2019-05-22T14:43:04.489Z,3.60
2019-05-22T14:45:33.833Z,3.30
2019-05-22T14:48:03.222Z,18.57
2019-05-22T14:50:33.303Z,4.50
2019-05-22T14:53:03.091Z,4.67
2019-05-22T14:55:34.871Z,3.33
2019-05-22T14:58:05.653Z,2.67
2019-05-22T15:00:35.416Z,2.50
2019-05-22T15:03:05.183Z,2.53
2019-05-22T15:05:34.211Z,3.13
2019-05-22T15:08:04.070Z,2.30
2019-05-22T15:10:33.230Z,2.83
2019-05-22T15:13:02.741Z,2.90
2019-05-22T15:15:32.409Z,3.13
2019-05-22T15:18:01.276Z,3.57
2019-05-22T15:20:34.300Z,3.20
2019-05-22T15:23:03.366Z,3.60
2019-05-22T15:25:32.311Z,3.93
2019-05-22T15:28:02.215Z,4.17
2019-05-22T15:30:31.079Z,4.20
2019-05-22T15:32:59.940Z,4.90
2019-05-22T15:35:29.380Z,4.20
2019-05-22T15:37:59.616Z,4.80
2019-05-22T15:40:29.676Z,5.47
2019-05-22T15:42:58.927Z,4.87
2019-05-22T15:45:29.386Z,4.90
2019-05-22T15:48:02.822Z,5.10
2019-05-22T15:50:35.235Z,5.30
2019-05-22T15:53:10.228Z,5.30
2019-05-22T15:55:39.272Z,5.40
2019-05-22T15:58:08.963Z,5.20
2019-05-22T16:00:40.714Z,5.57
2019-05-22T16:03:12.654Z,5.70
2019-05-22T16:05:43.673Z,5.70
2019-05-22T16:08:14.991Z,5.67
2019-05-22T16:10:46.740Z,5.90
2019-05-22T16:13:19.456Z,5.73
2019-05-22T16:15:50.526Z,6.70
2019-05-22T16:18:22.370Z,5.70
2019-05-22T16:20:52.272Z,5.80
2019-05-22T16:23:22.363Z,5.80
2019-05-22T16:25:53.021Z,7.00
2019-05-22T16:28:23.863Z,5.00
2019-05-22T16:30:53.738Z,4.17
2019-05-22T16:33:25.045Z,4.07
2019-05-22T16:35:54.563Z,3.53
2019-05-22T16:38:25.630Z,4.07
2019-05-22T16:40:54.679Z,4.20
2019-05-22T16:43:24.181Z,4.40
2019-05-22T16:45:53.658Z,10.50
2019-05-22T16:48:29.040Z,10.53
2019-05-22T16:50:53.893Z,13.40
2019-05-22T16:53:25.060Z,12.10
2019-05-22T16:55:56.399Z,11.33
2019-05-22T16:58:25.641Z,10.13
2019-05-22T17:00:56.968Z,7.07
2019-05-22T17:03:27.731Z,10.50
2019-05-22T17:05:58.067Z,11.20
2019-05-22T17:08:29.095Z,7.17
2019-05-22T17:11:01.750Z,6.27
2019-05-22T17:13:32.274Z,4.37
2019-05-22T17:16:01.925Z,6.03
2019-05-22T17:18:45.997Z,5.97
2019-05-22T17:21:04.567Z,6.70
2019-05-22T17:23:33.560Z,30.17
2019-05-22T17:26:04.707Z,7.40
2019-05-22T17:28:34.533Z,6.90
2019-05-22T17:31:03.400Z,7.77
2019-05-22T17:33:33.760Z,8.77
2019-05-22T17:36:05.792Z,6.63
2019-05-22T17:38:35.199Z,6.67
2019-05-22T17:41:04.817Z,7.07
2019-05-22T17:43:34.346Z,6.13
2019-05-22T17:46:04.244Z,6.10
2019-05-22T17:48:34.273Z,6.63
2019-05-22T17:51:04.103Z,10.43
2019-05-22T17:53:33.659Z,16.03
2019-05-22T17:56:02.844Z,16.10
2019-05-22T17:58:31.882Z,15.70
2019-05-22T18:01:00.741Z,16.73
2019-05-22T18:03:29.911Z,22.53
2019-05-22T18:05:58.962Z,23.20
2019-05-22T18:08:28.593Z,24.90
2019-05-22T18:10:59.056Z,25.30
2019-05-22T18:13:28.640Z,29.73
2019-05-22T18:15:57.806Z,38.50
2019-05-22T18:18:27.118Z,37.13
2019-05-22T18:20:56.998Z,44.53
2019-05-22T18:23:26.067Z,51.50
2019-05-22T18:25:54.923Z,54.93
2019-05-22T18:28:23.951Z,30.17
2019-05-22T18:30:53.110Z,26.80
2019-05-22T18:33:22.068Z,21.00
2019-05-22T18:35:51.283Z,18.13
2019-05-22T18:38:20.270Z,13.50
2019-05-22T18:40:49.329Z,14.73
2019-05-22T18:43:22.907Z,13.80
2019-05-22T18:45:50.395Z,15.40
2019-05-22T18:48:19.253Z,15.13
2019-05-22T18:50:48.196Z,15.20
2019-05-22T18:53:17.046Z,16.00
2019-05-22T18:55:45.914Z,15.30
2019-05-22T18:58:14.831Z,15.67
2019-05-22T19:00:43.913Z,17.20
2019-05-22T19:03:13.209Z,19.43
2019-05-22T19:05:43.589Z,35.27
2019-05-22T19:08:12.539Z,37.80
2019-05-22T19:10:41.387Z,42.23
2019-05-22T19:13:14.246Z,44.90
2019-05-22T19:15:41.322Z,42.00
2019-05-22T19:18:10.507Z,44.70
2019-05-22T19:20:39.387Z,42.53
2019-05-22T19:23:08.752Z,37.83
2019-05-22T19:25:37.722Z,40.00
2019-05-22T19:28:06.604Z,28.50
2019-05-22T19:30:36.390Z,30.13
2019-05-22T19:33:05.338Z,28.83
2019-05-22T19:35:34.275Z,27.37
2019-05-22T19:38:03.136Z,25.00
2019-05-22T19:40:32.899Z,24.83
2019-05-22T19:43:02.285Z,26.67
2019-05-22T19:45:31.393Z,29.80
2019-05-22T19:48:01.122Z,31.43
2019-05-22T19:50:31.517Z,28.93
2019-05-22T19:53:17.531Z,27.47
2019-05-22T19:55:32.576Z,26.90
2019-05-22T19:58:01.787Z,27.23
2019-05-22T20:00:31.863Z,27.50
2019-05-22T20:03:01.130Z,22.83
2019-05-22T20:05:30.626Z,19.90
2019-05-22T20:07:59.999Z,19.60
2019-05-22T20:10:28.949Z,21.17
2019-05-22T20:12:57.889Z,21.43
2019-05-22T20:15:28.155Z,21.80
2019-05-22T20:17:57.509Z,21.73
2019-05-22T20:20:27.535Z,23.53
2019-05-22T20:22:56.809Z,24.80
2019-05-22T20:25:25.854Z,24.97
2019-05-22T20:27:57.261Z,26.90
2019-05-22T20:30:26.935Z,25.50
2019-05-22T20:32:56.585Z,26.80
2019-05-22T20:35:26.602Z,23.67
2019-05-22T20:37:55.473Z,22.63
2019-05-22T20:40:25.257Z,22.17
2019-05-22T20:42:54.694Z,22.03
2019-05-22T20:45:25.630Z,23.77
2019-05-22T20:48:12.520Z,23.67
2019-05-22T20:50:43.409Z,27.40
2019-05-22T20:53:14.429Z,27.13
2019-05-22T20:55:43.962Z,28.87
2019-05-22T20:58:14.517Z,26.40
2019-05-22T21:00:43.809Z,28.30
2019-05-22T21:03:13.971Z,24.97
2019-05-22T21:05:43.723Z,25.43
2019-05-22T21:08:15.548Z,25.13
2019-05-22T21:10:47.283Z,25.33
2019-05-22T21:13:17.585Z,25.80
2019-05-22T21:15:48.245Z,27.07
2019-05-22T21:18:19.621Z,32.13
2019-05-22T21:20:55.140Z,30.67
2019-05-22T21:23:24.118Z,28.30
2019-05-22T21:25:53.068Z,27.00
2019-05-22T21:28:22.736Z,25.10
2019-05-22T21:30:54.327Z,21.73
2019-05-22T21:33:24.267Z,22.23
2019-05-22T21:35:55.133Z,22.00
2019-05-22T21:38:24.865Z,21.53
2019-05-22T21:40:56.308Z,21.13
2019-05-22T21:43:25.367Z,24.10
2019-05-22T21:45:54.246Z,25.73
2019-05-22T21:48:23.916Z,24.13
2019-05-22T21:50:52.759Z,25.03
2019-05-22T21:53:22.083Z,31.23
2019-05-22T21:56:03.676Z,30.77
2019-05-22T21:58:21.554Z,29.27
2019-05-22T22:00:56.988Z,26.30
2019-05-22T22:03:29.552Z,21.93
2019-05-22T22:05:59.490Z,20.30
2019-05-22T22:08:29.697Z,19.33
2019-05-22T22:10:59.274Z,18.57
2019-05-22T22:13:29.938Z,17.53
2019-05-22T22:15:59.260Z,16.40
2019-05-22T22:18:28.329Z,15.47
2019-05-22T22:20:58.503Z,16.37
2019-05-22T22:23:28.025Z,17.83
2019-05-22T22:25:57.266Z,17.77
2019-05-22T22:28:26.642Z,15.87
2019-05-22T22:30:57.907Z,13.87
2019-05-22T22:33:29.720Z,15.00
2019-05-22T22:35:59.173Z,14.03
2019-05-22T22:38:28.992Z,14.60
2019-05-22T22:40:57.843Z,14.27
2019-05-22T22:43:30.461Z,15.73
2019-05-22T22:46:06.797Z,15.87
2019-05-22T22:48:37.163Z,19.10
2019-05-22T22:51:09.710Z,19.00
2019-05-22T22:53:39.053Z,21.97
2019-05-22T22:56:10.581Z,22.20
2019-05-22T22:58:39.729Z,22.53
2019-05-22T23:01:13.270Z,23.30
2019-05-22T23:03:43.538Z,17.00
2019-05-22T23:06:14.967Z,17.40
2019-05-22T23:08:45.470Z,16.03
2019-05-22T23:11:16.233Z,20.53
2019-05-22T23:13:46.167Z,19.60
2019-05-22T23:16:16.065Z,16.53
2019-05-22T23:18:48.261Z,12.90
2019-05-22T23:21:17.471Z,11.73
2019-05-22T23:23:46.270Z,11.57
2019-05-22T23:26:16.432Z,11.67
2019-05-22T23:28:45.491Z,12.00
2019-05-22T23:31:15.903Z,16.23
2019-05-22T23:33:45.269Z,19.23
2019-05-22T23:36:15.787Z,18.83
2019-05-22T23:38:45.479Z,18.07
2019-05-22T23:41:15.534Z,14.80
2019-05-22T23:43:45.160Z,14.50
2019-05-22T23:46:15.018Z,15.07
2019-05-22T23:48:45.063Z,14.90
2019-05-22T23:51:14.030Z,15.87
2019-05-22T23:53:42.953Z,14.77
2019-05-22T23:56:11.806Z,14.17
2019-05-22T23:58:52.337Z,15.13
